Meridian, California
Current Conditions -  °F | °C
As of 12:53 AM on Monday 22 Dec 2014 (Local Time) from KMYV Reporting Station
Overcast Overcast  
Wind Chill: 57°   Ceiling: 1800
Heat Index: 57°   Visibility: 7mi
Dew Point: 55°   Wind: 6mph
Humidity: 93%   Direction: 340°NNW
Pressure: 30.27"   Gusts: NA
Location:  39.14°N, 121.92°W
Report Text: KMYV 220853Z AUTO 34005KT 7SM OVC018 14/13 A3027 RMK AO2 SLP253 T01390128 58004
Loading
Personal Weather Stations






























Interactive Weather Map New forecast layout! Learn more

10-Day Weather Forecast

Advertisements
Track Severe Weather on mobile